sensor_id;sensor_type;location;lat;lon;timestamp;P1;durP1;ratioP1;P2;durP2;ratioP2
16727;SDS011;8482;54.396;18.590;2023-03-16T06:16:11;5.83;;;2.97;;
16727;SDS011;8482;54.396;18.590;2023-03-16T06:18:38;7.20;;;3.20;;
16727;SDS011;8482;54.396;18.590;2023-03-16T06:21:05;6.30;;;3.17;;
16727;SDS011;8482;54.396;18.590;2023-03-16T06:23:31;9.43;;;3.13;;
16727;SDS011;8482;54.396;18.590;2023-03-16T06:25:58;7.70;;;3.63;;
16727;SDS011;8482;54.396;18.590;2023-03-16T06:28:25;7.23;;;3.20;;
16727;SDS011;8482;54.396;18.590;2023-03-16T06:30:52;7.83;;;3.13;;
16727;SDS011;8482;54.396;18.590;2023-03-16T06:33:19;7.13;;;3.40;;
16727;SDS011;8482;54.396;18.590;2023-03-16T06:35:45;9.27;;;3.90;;
16727;SDS011;8482;54.396;18.590;2023-03-16T06:38:14;8.87;;;4.13;;
16727;SDS011;8482;54.396;18.590;2023-03-16T06:40:41;9.53;;;4.27;;
16727;SDS011;8482;54.396;18.590;2023-03-16T06:43:07;8.23;;;4.03;;
16727;SDS011;8482;54.396;18.590;2023-03-16T06:45:32;10.03;;;3.93;;
16727;SDS011;8482;54.396;18.590;2023-03-16T06:47:59;7.60;;;3.70;;
16727;SDS011;8482;54.396;18.590;2023-03-16T06:50:25;10.37;;;4.13;;
16727;SDS011;8482;54.396;18.590;2023-03-16T06:52:51;11.43;;;3.73;;
16727;SDS011;8482;54.396;18.590;2023-03-16T06:55:17;8.87;;;3.83;;
16727;SDS011;8482;54.396;18.590;2023-03-16T06:57:43;8.03;;;3.77;;
16727;SDS011;8482;54.396;18.590;2023-03-16T07:00:10;8.63;;;3.87;;
16727;SDS011;8482;54.396;18.590;2023-03-16T07:02:39;8.23;;;4.03;;
16727;SDS011;8482;54.396;18.590;2023-03-16T07:05:08;8.03;;;3.87;;
16727;SDS011;8482;54.396;18.590;2023-03-16T07:07:40;10.43;;;3.83;;
16727;SDS011;8482;54.396;18.590;2023-03-16T07:10:11;9.13;;;3.63;;
16727;SDS011;8482;54.396;18.590;2023-03-16T07:12:39;5.13;;;2.50;;
16727;SDS011;8482;54.396;18.590;2023-03-16T07:15:06;6.80;;;2.77;;
16727;SDS011;8482;54.396;18.590;2023-03-16T07:17:32;8.37;;;2.70;;
16727;SDS011;8482;54.396;18.590;2023-03-16T07:19:58;7.43;;;2.90;;
16727;SDS011;8482;54.396;18.590;2023-03-16T07:22:24;7.50;;;2.80;;
16727;SDS011;8482;54.396;18.590;2023-03-16T07:24:50;5.43;;;2.00;;
16727;SDS011;8482;54.396;18.590;2023-03-16T07:27:21;7.60;;;2.60;;
16727;SDS011;8482;54.396;18.590;2023-03-16T07:29:48;11.03;;;2.60;;
16727;SDS011;8482;54.396;18.590;2023-03-16T07:32:16;7.77;;;3.23;;
16727;SDS011;8482;54.396;18.590;2023-03-16T07:34:43;10.57;;;3.33;;
16727;SDS011;8482;54.396;18.590;2023-03-16T07:37:09;6.43;;;2.60;;
16727;SDS011;8482;54.396;18.590;2023-03-16T07:39:35;8.47;;;2.90;;
16727;SDS011;8482;54.396;18.590;2023-03-16T07:42:02;6.40;;;2.70;;
16727;SDS011;8482;54.396;18.590;2023-03-16T07:44:28;9.17;;;3.40;;
16727;SDS011;8482;54.396;18.590;2023-03-16T07:46:55;9.30;;;3.07;;
16727;SDS011;8482;54.396;18.590;2023-03-16T07:49:21;11.07;;;3.27;;
16727;SDS011;8482;54.396;18.590;2023-03-16T07:51:47;7.67;;;2.47;;
16727;SDS011;8482;54.396;18.590;2023-03-16T07:54:13;6.97;;;2.50;;
16727;SDS011;8482;54.396;18.590;2023-03-16T07:56:39;5.23;;;2.53;;
16727;SDS011;8482;54.396;18.590;2023-03-16T07:59:06;8.00;;;2.67;;
16727;SDS011;8482;54.396;18.590;2023-03-16T08:01:32;8.37;;;2.90;;
16727;SDS011;8482;54.396;18.590;2023-03-16T08:03:59;5.53;;;1.83;;
16727;SDS011;8482;54.396;18.590;2023-03-16T08:06:26;8.17;;;2.47;;
16727;SDS011;8482;54.396;18.590;2023-03-16T08:08:52;6.97;;;2.43;;
16727;SDS011;8482;54.396;18.590;2023-03-16T08:11:18;5.60;;;2.17;;
16727;SDS011;8482;54.396;18.590;2023-03-16T08:13:48;5.47;;;2.30;;
16727;SDS011;8482;54.396;18.590;2023-03-16T08:16:19;7.03;;;2.43;;
16727;SDS011;8482;54.396;18.590;2023-03-16T08:18:46;5.60;;;2.17;;
16727;SDS011;8482;54.396;18.590;2023-03-16T08:21:13;6.13;;;2.23;;
16727;SDS011;8482;54.396;18.590;2023-03-16T08:23:39;10.67;;;2.60;;
16727;SDS011;8482;54.396;18.590;2023-03-16T08:26:06;6.27;;;2.20;;
16727;SDS011;8482;54.396;18.590;2023-03-16T08:28:33;6.33;;;2.70;;
16727;SDS011;8482;54.396;18.590;2023-03-16T08:31:00;9.47;;;2.67;;
16727;SDS011;8482;54.396;18.590;2023-03-16T08:33:26;9.27;;;2.70;;
16727;SDS011;8482;54.396;18.590;2023-03-16T08:35:52;7.30;;;2.80;;
16727;SDS011;8482;54.396;18.590;2023-03-16T08:38:18;6.40;;;2.60;;
16727;SDS011;8482;54.396;18.590;2023-03-16T08:40:44;7.33;;;3.03;;
16727;SDS011;8482;54.396;18.590;2023-03-16T08:43:16;5.67;;;2.77;;
16727;SDS011;8482;54.396;18.590;2023-03-16T08:45:46;9.63;;;3.70;;
16727;SDS011;8482;54.396;18.590;2023-03-16T08:48:13;6.10;;;2.90;;
16727;SDS011;8482;54.396;18.590;2023-03-16T08:50:40;6.90;;;2.37;;
16727;SDS011;8482;54.396;18.590;2023-03-16T08:53:08;9.40;;;2.80;;
16727;SDS011;8482;54.396;18.590;2023-03-16T08:55:36;4.47;;;2.50;;
16727;SDS011;8482;54.396;18.590;2023-03-16T08:58:02;6.00;;;2.47;;
16727;SDS011;8482;54.396;18.590;2023-03-16T09:00:28;6.77;;;2.40;;
16727;SDS011;8482;54.396;18.590;2023-03-16T09:02:54;5.97;;;2.60;;
16727;SDS011;8482;54.396;18.590;2023-03-16T09:05:20;5.73;;;2.00;;
16727;SDS011;8482;54.396;18.590;2023-03-16T09:07:47;4.87;;;2.10;;
16727;SDS011;8482;54.396;18.590;2023-03-16T09:10:14;4.30;;;1.90;;
16727;SDS011;8482;54.396;18.590;2023-03-16T09:12:42;5.17;;;2.30;;
16727;SDS011;8482;54.396;18.590;2023-03-16T09:15:09;4.57;;;2.53;;
16727;SDS011;8482;54.396;18.590;2023-03-16T09:17:38;5.07;;;2.47;;
16727;SDS011;8482;54.396;18.590;2023-03-16T09:20:06;6.63;;;2.43;;
16727;SDS011;8482;54.396;18.590;2023-03-16T09:22:35;3.73;;;2.00;;
16727;SDS011;8482;54.396;18.590;2023-03-16T09:25:02;5.13;;;1.83;;
16727;SDS011;8482;54.396;18.590;2023-03-16T09:27:31;4.03;;;1.97;;
16727;SDS011;8482;54.396;18.590;2023-03-16T09:29:57;3.90;;;1.80;;
16727;SDS011;8482;54.396;18.590;2023-03-16T09:32:25;5.90;;;2.00;;
16727;SDS011;8482;54.396;18.590;2023-03-16T09:34:52;5.03;;;2.33;;
16727;SDS011;8482;54.396;18.590;2023-03-16T09:37:19;6.17;;;1.93;;
16727;SDS011;8482;54.396;18.590;2023-03-16T09:39:46;5.20;;;2.72;;
16727;SDS011;8482;54.396;18.590;2023-03-16T09:42:18;4.63;;;2.00;;
16727;SDS011;8482;54.396;18.590;2023-03-16T09:47:30;5.07;;;2.00;;
16727;SDS011;8482;54.396;18.590;2023-03-16T09:50:01;4.83;;;1.97;;
16727;SDS011;8482;54.396;18.590;2023-03-16T09:52:34;3.33;;;1.70;;
16727;SDS011;8482;54.396;18.590;2023-03-16T09:55:27;5.75;;;2.20;;
16727;SDS011;8482;54.396;18.590;2023-03-16T09:57:58;3.77;;;1.70;;
16727;SDS011;8482;54.396;18.590;2023-03-16T10:03:27;2.45;;;1.27;;
16727;SDS011;8482;54.396;18.590;2023-03-16T10:06:39;3.60;;;1.33;;
16727;SDS011;8482;54.396;18.590;2023-03-16T10:12:00;2.90;;;1.50;;
16727;SDS011;8482;54.396;18.590;2023-03-16T10:14:43;2.80;;;1.50;;
16727;SDS011;8482;54.396;18.590;2023-03-16T10:17:31;3.83;;;1.70;;
16727;SDS011;8482;54.396;18.590;2023-03-16T10:20:15;3.33;;;1.90;;
16727;SDS011;8482;54.396;18.590;2023-03-16T10:22:46;4.43;;;1.67;;
16727;SDS011;8482;54.396;18.590;2023-03-16T10:25:24;2.65;;;1.48;;
16727;SDS011;8482;54.396;18.590;2023-03-16T10:28:03;3.30;;;1.60;;
16727;SDS011;8482;54.396;18.590;2023-03-16T10:30:33;5.30;;;1.70;;
16727;SDS011;8482;54.396;18.590;2023-03-16T10:33:04;4.73;;;2.00;;
16727;SDS011;8482;54.396;18.590;2023-03-16T10:43:45;6.28;;;2.50;;
16727;SDS011;8482;54.396;18.590;2023-03-16T10:46:16;5.20;;;2.60;;
16727;SDS011;8482;54.396;18.590;2023-03-16T10:51:52;5.63;;;2.27;;
16727;SDS011;8482;54.396;18.590;2023-03-16T10:54:26;10.90;;;3.45;;
16727;SDS011;8482;54.396;18.590;2023-03-16T10:56:53;4.07;;;2.00;;
16727;SDS011;8482;54.396;18.590;2023-03-16T10:59:31;5.83;;;2.23;;
16727;SDS011;8482;54.396;18.590;2023-03-16T11:02:13;6.55;;;2.05;;
16727;SDS011;8482;54.396;18.590;2023-03-16T11:04:43;4.93;;;1.90;;
16727;SDS011;8482;54.396;18.590;2023-03-16T11:07:16;3.00;;;1.50;;
16727;SDS011;8482;54.396;18.590;2023-03-16T11:09:45;3.63;;;1.95;;
16727;SDS011;8482;54.396;18.590;2023-03-16T11:12:18;4.13;;;1.55;;
16727;SDS011;8482;54.396;18.590;2023-03-16T11:14:49;7.63;;;2.20;;
16727;SDS011;8482;54.396;18.590;2023-03-16T11:17:17;3.10;;;1.55;;
16727;SDS011;8482;54.396;18.590;2023-03-16T11:20:04;3.95;;;1.60;;
16727;SDS011;8482;54.396;18.590;2023-03-16T11:22:41;5.03;;;2.15;;
16727;SDS011;8482;54.396;18.590;2023-03-16T11:27:55;2.53;;;1.25;;
16727;SDS011;8482;54.396;18.590;2023-03-16T11:33:37;2.55;;;1.38;;
16727;SDS011;8482;54.396;18.590;2023-03-16T11:39:06;2.38;;;1.50;;
16727;SDS011;8482;54.396;18.590;2023-03-16T11:44:55;3.47;;;1.58;;
16727;SDS011;8482;54.396;18.590;2023-03-16T12:17:17;3.25;;;1.30;;
16727;SDS011;8482;54.396;18.590;2023-03-16T12:19:45;4.05;;;1.42;;
16727;SDS011;8482;54.396;18.590;2023-03-16T12:22:21;1.95;;;1.25;;
16727;SDS011;8482;54.396;18.590;2023-03-16T12:24:57;2.50;;;1.13;;
16727;SDS011;8482;54.396;18.590;2023-03-16T12:27:28;2.13;;;1.02;;
16727;SDS011;8482;54.396;18.590;2023-03-16T12:32:46;3.05;;;1.33;;
16727;SDS011;8482;54.396;18.590;2023-03-16T12:35:48;2.60;;;1.13;;
16727;SDS011;8482;54.396;18.590;2023-03-16T12:38:45;2.15;;;1.20;;
16727;SDS011;8482;54.396;18.590;2023-03-16T12:44:55;1.95;;;1.05;;
16727;SDS011;8482;54.396;18.590;2023-03-16T12:47:54;1.67;;;1.02;;
16727;SDS011;8482;54.396;18.590;2023-03-16T12:50:45;2.30;;;1.02;;
16727;SDS011;8482;54.396;18.590;2023-03-16T12:53:39;3.33;;;1.23;;
16727;SDS011;8482;54.396;18.590;2023-03-16T12:56:15;3.65;;;1.40;;
16727;SDS011;8482;54.396;18.590;2023-03-16T12:58:54;1.83;;;1.20;;
16727;SDS011;8482;54.396;18.590;2023-03-16T13:01:28;2.50;;;1.10;;
16727;SDS011;8482;54.396;18.590;2023-03-16T13:04:07;3.08;;;1.30;;
16727;SDS011;8482;54.396;18.590;2023-03-16T13:06:46;2.45;;;1.35;;
16727;SDS011;8482;54.396;18.590;2023-03-16T13:09:18;1.20;;;0.80;;
16727;SDS011;8482;54.396;18.590;2023-03-16T13:11:52;1.10;;;0.82;;
16727;SDS011;8482;54.396;18.590;2023-03-16T13:17:20;1.65;;;0.82;;
16727;SDS011;8482;54.396;18.590;2023-03-16T13:22:45;2.08;;;1.00;;
16727;SDS011;8482;54.396;18.590;2023-03-16T13:25:18;2.58;;;0.95;;
16727;SDS011;8482;54.396;18.590;2023-03-16T13:27:53;0.98;;;0.90;;
16727;SDS011;8482;54.396;18.590;2023-03-16T13:33:12;4.25;;;1.30;;
16727;SDS011;8482;54.396;18.590;2023-03-16T13:35:49;2.33;;;0.93;;
16727;SDS011;8482;54.396;18.590;2023-03-16T13:38:22;2.28;;;1.10;;
16727;SDS011;8482;54.396;18.590;2023-03-16T13:40:52;3.65;;;1.20;;
16727;SDS011;8482;54.396;18.590;2023-03-16T13:43:23;3.50;;;1.60;;
16727;SDS011;8482;54.396;18.590;2023-03-16T13:45:56;5.18;;;1.55;;
16727;SDS011;8482;54.396;18.590;2023-03-16T13:48:22;3.70;;;1.15;;
16727;SDS011;8482;54.396;18.590;2023-03-16T13:50:52;3.30;;;1.30;;
16727;SDS011;8482;54.396;18.590;2023-03-16T13:53:28;3.00;;;1.30;;
16727;SDS011;8482;54.396;18.590;2023-03-16T13:55:57;2.35;;;1.00;;
16727;SDS011;8482;54.396;18.590;2023-03-16T13:58:30;3.65;;;1.25;;
16727;SDS011;8482;54.396;18.590;2023-03-16T14:01:03;3.78;;;1.30;;
16727;SDS011;8482;54.396;18.590;2023-03-16T14:03:44;2.75;;;1.42;;
16727;SDS011;8482;54.396;18.590;2023-03-16T14:06:17;2.85;;;1.20;;
16727;SDS011;8482;54.396;18.590;2023-03-16T14:08:54;2.83;;;1.23;;
16727;SDS011;8482;54.396;18.590;2023-03-16T14:11:25;5.03;;;1.67;;
16727;SDS011;8482;54.396;18.590;2023-03-16T14:13:53;2.92;;;1.30;;
16727;SDS011;8482;54.396;18.590;2023-03-16T14:16:23;3.90;;;1.25;;
16727;SDS011;8482;54.396;18.590;2023-03-16T14:21:30;2.63;;;0.95;;
16727;SDS011;8482;54.396;18.590;2023-03-16T14:24:02;3.65;;;1.25;;
16727;SDS011;8482;54.396;18.590;2023-03-16T14:26:38;3.95;;;1.35;;
16727;SDS011;8482;54.396;18.590;2023-03-16T14:31:55;3.47;;;1.20;;
16727;SDS011;8482;54.396;18.590;2023-03-16T14:34:28;4.43;;;1.65;;
16727;SDS011;8482;54.396;18.590;2023-03-16T14:37:10;3.25;;;1.20;;
16727;SDS011;8482;54.396;18.590;2023-03-16T14:39:40;3.33;;;1.00;;
16727;SDS011;8482;54.396;18.590;2023-03-16T14:42:13;6.13;;;1.35;;
16727;SDS011;8482;54.396;18.590;2023-03-16T14:44:48;3.92;;;1.45;;
16727;SDS011;8482;54.396;18.590;2023-03-16T14:47:22;4.47;;;1.40;;
16727;SDS011;8482;54.396;18.590;2023-03-16T14:49:55;2.45;;;1.23;;
16727;SDS011;8482;54.396;18.590;2023-03-16T14:52:30;3.92;;;1.75;;
16727;SDS011;8482;54.396;18.590;2023-03-16T14:54:58;3.22;;;1.25;;
16727;SDS011;8482;54.396;18.590;2023-03-16T14:57:27;3.88;;;1.40;;
16727;SDS011;8482;54.396;18.590;2023-03-16T14:59:53;2.92;;;1.20;;
16727;SDS011;8482;54.396;18.590;2023-03-16T15:04:54;3.13;;;1.25;;
16727;SDS011;8482;54.396;18.590;2023-03-16T15:07:26;4.38;;;1.65;;
16727;SDS011;8482;54.396;18.590;2023-03-16T15:12:46;4.95;;;1.63;;
16727;SDS011;8482;54.396;18.590;2023-03-16T15:15:19;4.07;;;1.27;;
16727;SDS011;8482;54.396;18.590;2023-03-16T15:17:49;3.67;;;1.38;;
16727;SDS011;8482;54.396;18.590;2023-03-16T15:20:20;4.88;;;1.30;;
16727;SDS011;8482;54.396;18.590;2023-03-16T15:22:53;2.40;;;1.10;;
16727;SDS011;8482;54.396;18.590;2023-03-16T15:28:10;3.95;;;1.20;;
16727;SDS011;8482;54.396;18.590;2023-03-16T15:30:40;2.58;;;1.25;;
16727;SDS011;8482;54.396;18.590;2023-03-16T15:33:08;4.00;;;1.10;;
16727;SDS011;8482;54.396;18.590;2023-03-16T15:35:35;2.17;;;1.00;;
16727;SDS011;8482;54.396;18.590;2023-03-16T15:38:10;3.38;;;1.35;;
16727;SDS011;8482;54.396;18.590;2023-03-16T15:40:44;2.38;;;1.20;;
16727;SDS011;8482;54.396;18.590;2023-03-16T15:43:12;3.92;;;1.20;;
16727;SDS011;8482;54.396;18.590;2023-03-16T15:45:44;3.85;;;1.45;;
16727;SDS011;8482;54.396;18.590;2023-03-16T15:48:11;5.03;;;1.50;;
16727;SDS011;8482;54.396;18.590;2023-03-16T15:50:39;4.55;;;1.50;;
16727;SDS011;8482;54.396;18.590;2023-03-16T15:56:04;3.72;;;1.20;;
16727;SDS011;8482;54.396;18.590;2023-03-16T15:58:36;3.97;;;1.35;;
16727;SDS011;8482;54.396;18.590;2023-03-16T16:01:15;4.30;;;1.45;;
16727;SDS011;8482;54.396;18.590;2023-03-16T16:03:56;3.15;;;1.13;;
16727;SDS011;8482;54.396;18.590;2023-03-16T16:06:23;4.20;;;1.75;;
16727;SDS011;8482;54.396;18.590;2023-03-16T16:08:49;5.03;;;1.77;;
16727;SDS011;8482;54.396;18.590;2023-03-16T16:11:15;2.78;;;1.23;;
16727;SDS011;8482;54.396;18.590;2023-03-16T16:13:55;5.25;;;1.40;;
16727;SDS011;8482;54.396;18.590;2023-03-16T16:16:23;5.70;;;1.52;;
16727;SDS011;8482;54.396;18.590;2023-03-16T16:18:56;5.30;;;1.50;;
16727;SDS011;8482;54.396;18.590;2023-03-16T16:21:23;4.13;;;1.23;;
16727;SDS011;8482;54.396;18.590;2023-03-16T16:23:56;4.57;;;1.65;;
16727;SDS011;8482;54.396;18.590;2023-03-16T16:26:33;5.75;;;1.38;;
16727;SDS011;8482;54.396;18.590;2023-03-16T16:29:11;1.77;;;1.00;;
16727;SDS011;8482;54.396;18.590;2023-03-16T16:31:46;2.50;;;1.08;;
16727;SDS011;8482;54.396;18.590;2023-03-16T16:34:14;3.63;;;1.50;;
16727;SDS011;8482;54.396;18.590;2023-03-16T16:36:45;4.45;;;1.40;;
16727;SDS011;8482;54.396;18.590;2023-03-16T16:39:12;6.15;;;2.50;;
16727;SDS011;8482;54.396;18.590;2023-03-16T16:41:38;3.40;;;1.20;;
16727;SDS011;8482;54.396;18.590;2023-03-16T16:44:17;4.23;;;1.27;;
16727;SDS011;8482;54.396;18.590;2023-03-16T16:46:55;3.05;;;1.15;;
16727;SDS011;8482;54.396;18.590;2023-03-16T16:49:22;4.35;;;1.52;;
16727;SDS011;8482;54.396;18.590;2023-03-16T16:51:52;3.70;;;1.60;;
16727;SDS011;8482;54.396;18.590;2023-03-16T16:54:22;3.50;;;1.37;;
16727;SDS011;8482;54.396;18.590;2023-03-16T16:56:53;5.47;;;1.45;;
16727;SDS011;8482;54.396;18.590;2023-03-16T16:59:25;1.90;;;1.10;;
16727;SDS011;8482;54.396;18.590;2023-03-16T17:01:57;9.23;;;1.60;;
16727;SDS011;8482;54.396;18.590;2023-03-16T17:04:26;2.33;;;1.17;;
16727;SDS011;8482;54.396;18.590;2023-03-16T17:06:56;2.77;;;1.10;;
16727;SDS011;8482;54.396;18.590;2023-03-16T17:09:26;10.77;;;2.10;;
16727;SDS011;8482;54.396;18.590;2023-03-16T17:11:54;2.63;;;1.30;;
16727;SDS011;8482;54.396;18.590;2023-03-16T17:14:24;5.83;;;1.50;;
16727;SDS011;8482;54.396;18.590;2023-03-16T17:16:55;4.63;;;1.30;;
16727;SDS011;8482;54.396;18.590;2023-03-16T17:19:26;4.27;;;1.17;;
16727;SDS011;8482;54.396;18.590;2023-03-16T17:21:53;3.17;;;1.37;;
16727;SDS011;8482;54.396;18.590;2023-03-16T17:24:21;3.13;;;1.20;;
16727;SDS011;8482;54.396;18.590;2023-03-16T17:26:49;3.93;;;1.40;;
16727;SDS011;8482;54.396;18.590;2023-03-16T17:29:23;3.83;;;1.30;;
16727;SDS011;8482;54.396;18.590;2023-03-16T17:32:01;5.60;;;1.40;;
16727;SDS011;8482;54.396;18.590;2023-03-16T17:34:40;4.53;;;1.40;;
16727;SDS011;8482;54.396;18.590;2023-03-16T17:37:11;3.40;;;1.53;;
16727;SDS011;8482;54.396;18.590;2023-03-16T17:39:40;3.27;;;1.57;;
16727;SDS011;8482;54.396;18.590;2023-03-16T17:42:13;3.93;;;1.63;;
16727;SDS011;8482;54.396;18.590;2023-03-16T17:44:47;4.60;;;1.70;;
16727;SDS011;8482;54.396;18.590;2023-03-16T17:47:34;3.97;;;1.47;;
16727;SDS011;8482;54.396;18.590;2023-03-16T17:50:12;3.87;;;1.63;;
16727;SDS011;8482;54.396;18.590;2023-03-16T17:52:55;3.97;;;1.70;;
16727;SDS011;8482;54.396;18.590;2023-03-16T17:55:21;4.63;;;1.97;;
16727;SDS011;8482;54.396;18.590;2023-03-16T17:57:49;7.70;;;2.53;;
16727;SDS011;8482;54.396;18.590;2023-03-16T18:00:21;8.27;;;3.20;;
16727;SDS011;8482;54.396;18.590;2023-03-16T18:03:28;8.90;;;3.17;;
16727;SDS011;8482;54.396;18.590;2023-03-16T18:05:51;9.80;;;3.60;;
16727;SDS011;8482;54.396;18.590;2023-03-16T18:08:27;7.93;;;3.47;;
16727;SDS011;8482;54.396;18.590;2023-03-16T18:11:04;11.20;;;4.27;;
16727;SDS011;8482;54.396;18.590;2023-03-16T18:13:39;9.97;;;4.23;;
16727;SDS011;8482;54.396;18.590;2023-03-16T18:16:06;9.60;;;4.20;;
16727;SDS011;8482;54.396;18.590;2023-03-16T18:18:39;9.10;;;3.90;;
16727;SDS011;8482;54.396;18.590;2023-03-16T18:21:09;12.43;;;4.53;;
16727;SDS011;8482;54.396;18.590;2023-03-16T18:23:49;11.63;;;4.57;;
16727;SDS011;8482;54.396;18.590;2023-03-16T18:26:16;12.27;;;4.57;;
16727;SDS011;8482;54.396;18.590;2023-03-16T18:28:44;13.87;;;4.70;;
16727;SDS011;8482;54.396;18.590;2023-03-16T18:31:20;10.83;;;4.40;;
16727;SDS011;8482;54.396;18.590;2023-03-16T18:33:59;9.63;;;3.37;;
16727;SDS011;8482;54.396;18.590;2023-03-16T18:36:34;8.07;;;2.97;;
16727;SDS011;8482;54.396;18.590;2023-03-16T18:39:03;7.00;;;2.43;;
16727;SDS011;8482;54.396;18.590;2023-03-16T18:41:40;6.27;;;2.13;;
16727;SDS011;8482;54.396;18.590;2023-03-16T18:44:15;7.20;;;2.70;;
16727;SDS011;8482;54.396;18.590;2023-03-16T18:46:50;6.93;;;2.70;;
16727;SDS011;8482;54.396;18.590;2023-03-16T18:49:29;8.33;;;3.03;;
16727;SDS011;8482;54.396;18.590;2023-03-16T18:52:00;8.80;;;2.90;;
16727;SDS011;8482;54.396;18.590;2023-03-16T18:54:29;6.90;;;3.20;;
16727;SDS011;8482;54.396;18.590;2023-03-16T18:56:59;9.23;;;3.60;;
16727;SDS011;8482;54.396;18.590;2023-03-16T18:59:28;9.40;;;3.77;;
16727;SDS011;8482;54.396;18.590;2023-03-16T19:01:55;9.20;;;4.40;;
16727;SDS011;8482;54.396;18.590;2023-03-16T19:04:29;10.37;;;4.03;;
16727;SDS011;8482;54.396;18.590;2023-03-16T19:06:56;9.47;;;3.87;;
16727;SDS011;8482;54.396;18.590;2023-03-16T19:09:29;11.77;;;4.47;;
16727;SDS011;8482;54.396;18.590;2023-03-16T19:11:56;11.67;;;4.50;;
16727;SDS011;8482;54.396;18.590;2023-03-16T19:14:24;11.83;;;4.97;;
16727;SDS011;8482;54.396;18.590;2023-03-16T19:16:58;10.97;;;4.70;;
16727;SDS011;8482;54.396;18.590;2023-03-16T19:19:24;12.33;;;5.17;;
16727;SDS011;8482;54.396;18.590;2023-03-16T19:21:52;13.17;;;5.33;;
16727;SDS011;8482;54.396;18.590;2023-03-16T19:24:27;12.40;;;5.27;;
16727;SDS011;8482;54.396;18.590;2023-03-16T19:26:59;13.47;;;5.27;;
16727;SDS011;8482;54.396;18.590;2023-03-16T19:29:33;12.37;;;5.40;;
16727;SDS011;8482;54.396;18.590;2023-03-16T19:32:00;12.03;;;4.90;;
16727;SDS011;8482;54.396;18.590;2023-03-16T19:34:26;12.77;;;5.33;;
16727;SDS011;8482;54.396;18.590;2023-03-16T19:36:53;12.07;;;4.77;;
16727;SDS011;8482;54.396;18.590;2023-03-16T19:39:19;11.37;;;4.30;;
16727;SDS011;8482;54.396;18.590;2023-03-16T19:41:46;11.60;;;4.40;;
16727;SDS011;8482;54.396;18.590;2023-03-16T19:44:21;10.27;;;3.50;;
16727;SDS011;8482;54.396;18.590;2023-03-16T19:46:50;10.07;;;3.37;;
16727;SDS011;8482;54.396;18.590;2023-03-16T19:49:17;10.60;;;3.63;;
16727;SDS011;8482;54.396;18.590;2023-03-16T19:51:47;6.53;;;3.10;;
16727;SDS011;8482;54.396;18.590;2023-03-16T19:54:21;7.87;;;3.43;;
16727;SDS011;8482;54.396;18.590;2023-03-16T19:56:49;7.33;;;2.97;;
16727;SDS011;8482;54.396;18.590;2023-03-16T19:59:17;6.77;;;3.23;;
16727;SDS011;8482;54.396;18.590;2023-03-16T20:01:44;10.67;;;3.53;;
16727;SDS011;8482;54.396;18.590;2023-03-16T20:04:19;9.10;;;3.27;;
16727;SDS011;8482;54.396;18.590;2023-03-16T20:06:47;8.23;;;3.17;;
16727;SDS011;8482;54.396;18.590;2023-03-16T20:09:14;8.17;;;3.20;;
16727;SDS011;8482;54.396;18.590;2023-03-16T20:11:41;9.20;;;3.37;;
16727;SDS011;8482;54.396;18.590;2023-03-16T20:14:13;9.33;;;3.80;;
16727;SDS011;8482;54.396;18.590;2023-03-16T20:16:47;8.37;;;3.00;;
16727;SDS011;8482;54.396;18.590;2023-03-16T20:19:13;6.13;;;3.00;;
16727;SDS011;8482;54.396;18.590;2023-03-16T20:21:41;7.80;;;2.80;;
16727;SDS011;8482;54.396;18.590;2023-03-16T20:24:14;6.80;;;2.67;;
16727;SDS011;8482;54.396;18.590;2023-03-16T20:26:44;6.67;;;2.97;;
16727;SDS011;8482;54.396;18.590;2023-03-16T20:29:21;7.33;;;2.93;;
16727;SDS011;8482;54.396;18.590;2023-03-16T20:31:54;8.27;;;4.23;;
16727;SDS011;8482;54.396;18.590;2023-03-16T20:34:25;8.93;;;3.40;;
16727;SDS011;8482;54.396;18.590;2023-03-16T20:36:53;9.23;;;4.07;;
16727;SDS011;8482;54.396;18.590;2023-03-16T20:39:21;11.37;;;5.50;;
16727;SDS011;8482;54.396;18.590;2023-03-16T20:41:48;11.33;;;5.60;;
16727;SDS011;8482;54.396;18.590;2023-03-16T20:44:17;12.90;;;4.83;;
16727;SDS011;8482;54.396;18.590;2023-03-16T20:46:45;10.50;;;4.77;;
16727;SDS011;8482;54.396;18.590;2023-03-16T20:51:46;11.53;;;4.60;;
16727;SDS011;8482;54.396;18.590;2023-03-16T20:54:14;10.70;;;4.00;;
16727;SDS011;8482;54.396;18.590;2023-03-16T20:56:42;10.03;;;4.03;;
16727;SDS011;8482;54.396;18.590;2023-03-16T20:59:27;13.90;;;4.43;;
16727;SDS011;8482;54.396;18.590;2023-03-16T21:01:54;9.33;;;4.23;;
16727;SDS011;8482;54.396;18.590;2023-03-16T21:04:22;12.60;;;4.50;;
16727;SDS011;8482;54.396;18.590;2023-03-16T21:06:51;9.20;;;4.80;;
16727;SDS011;8482;54.396;18.590;2023-03-16T21:09:18;11.33;;;5.47;;
16727;SDS011;8482;54.396;18.590;2023-03-16T21:11:45;12.23;;;5.27;;
16727;SDS011;8482;54.396;18.590;2023-03-16T21:14:17;13.67;;;5.80;;
16727;SDS011;8482;54.396;18.590;2023-03-16T21:16:48;13.33;;;5.73;;
16727;SDS011;8482;54.396;18.590;2023-03-16T21:19:19;13.97;;;5.30;;
16727;SDS011;8482;54.396;18.590;2023-03-16T21:21:48;10.70;;;5.00;;
16727;SDS011;8482;54.396;18.590;2023-03-16T21:24:14;14.83;;;5.73;;
16727;SDS011;8482;54.396;18.590;2023-03-16T21:26:41;11.27;;;4.40;;
16727;SDS011;8482;54.396;18.590;2023-03-16T21:29:16;10.53;;;4.80;;
16727;SDS011;8482;54.396;18.590;2023-03-16T21:31:48;9.37;;;4.27;;
16727;SDS011;8482;54.396;18.590;2023-03-16T21:34:22;9.20;;;4.20;;
16727;SDS011;8482;54.396;18.590;2023-03-16T21:36:54;7.70;;;3.60;;
16727;SDS011;8482;54.396;18.590;2023-03-16T21:39:21;8.10;;;3.63;;
16727;SDS011;8482;54.396;18.590;2023-03-16T21:41:49;9.40;;;3.30;;
16727;SDS011;8482;54.396;18.590;2023-03-16T21:44:15;8.33;;;3.50;;
16727;SDS011;8482;54.396;18.590;2023-03-16T21:46:42;8.60;;;3.77;;
16727;SDS011;8482;54.396;18.590;2023-03-16T21:49:11;8.07;;;3.13;;
16727;SDS011;8482;54.396;18.590;2023-03-16T21:51:38;6.80;;;3.17;;
16727;SDS011;8482;54.396;18.590;2023-03-16T21:54:10;7.27;;;3.07;;
16727;SDS011;8482;54.396;18.590;2023-03-16T21:56:42;9.17;;;4.13;;
16727;SDS011;8482;54.396;18.590;2023-03-16T21:59:08;10.60;;;3.70;;
16727;SDS011;8482;54.396;18.590;2023-03-16T22:01:35;7.13;;;3.50;;
16727;SDS011;8482;54.396;18.590;2023-03-16T22:04:04;9.53;;;3.50;;
16727;SDS011;8482;54.396;18.590;2023-03-16T22:06:37;6.90;;;2.70;;
16727;SDS011;8482;54.396;18.590;2023-03-16T22:09:06;8.03;;;2.87;;
16727;SDS011;8482;54.396;18.590;2023-03-16T22:11:41;4.97;;;2.53;;
16727;SDS011;8482;54.396;18.590;2023-03-16T22:14:07;8.63;;;3.23;;
16727;SDS011;8482;54.396;18.590;2023-03-16T22:16:34;7.33;;;2.50;;
16727;SDS011;8482;54.396;18.590;2023-03-16T22:19:02;5.97;;;2.50;;
16727;SDS011;8482;54.396;18.590;2023-03-16T22:21:35;7.23;;;3.10;;
16727;SDS011;8482;54.396;18.590;2023-03-16T22:24:05;5.63;;;2.37;;
16727;SDS011;8482;54.396;18.590;2023-03-16T22:26:40;6.20;;;2.60;;
16727;SDS011;8482;54.396;18.590;2023-03-16T22:31:56;7.27;;;2.73;;
16727;SDS011;8482;54.396;18.590;2023-03-16T22:34:47;6.13;;;2.20;;
16727;SDS011;8482;54.396;18.590;2023-03-16T22:37:24;6.43;;;2.77;;
16727;SDS011;8482;54.396;18.590;2023-03-16T22:39:52;5.37;;;2.50;;
16727;SDS011;8482;54.396;18.590;2023-03-16T22:45:09;8.20;;;3.53;;
16727;SDS011;8482;54.396;18.590;2023-03-16T22:47:46;5.77;;;2.50;;
16727;SDS011;8482;54.396;18.590;2023-03-16T22:50:13;6.10;;;2.07;;
16727;SDS011;8482;54.396;18.590;2023-03-16T22:52:42;5.90;;;2.53;;
16727;SDS011;8482;54.396;18.590;2023-03-16T22:55:15;5.43;;;2.63;;
16727;SDS011;8482;54.396;18.590;2023-03-16T22:57:47;6.93;;;2.70;;
16727;SDS011;8482;54.396;18.590;2023-03-16T23:00:26;5.23;;;2.63;;
16727;SDS011;8482;54.396;18.590;2023-03-16T23:02:53;6.57;;;2.70;;
16727;SDS011;8482;54.396;18.590;2023-03-16T23:05:24;10.00;;;3.70;;